createdAt,value
2022-11-18T00:02:15.012Z,98878.97
2022-11-18T00:04:42.030Z,98864.25
2022-11-18T00:07:08.712Z,98864.22
2022-11-18T00:09:37.792Z,98865.94
2022-11-18T00:12:23.336Z,98866.72
2022-11-18T00:14:49.857Z,98861.50
2022-11-18T00:17:16.439Z,98862.34
2022-11-18T00:19:45.511Z,98858.88
2022-11-18T00:22:12.548Z,98867.53
2022-11-18T00:24:39.160Z,98864.00
2022-11-18T00:27:08.087Z,98863.13
2022-11-18T00:29:34.667Z,98855.28
2022-11-18T00:32:01.286Z,98850.97
2022-11-18T00:34:27.934Z,98854.34
2022-11-18T00:36:54.464Z,98851.72
2022-11-18T00:39:24.182Z,98842.22
2022-11-18T00:42:09.936Z,98843.00
2022-11-18T00:44:41.595Z,98843.00
2022-11-18T00:47:08.198Z,98836.94
2022-11-18T00:49:34.765Z,98830.00
2022-11-18T00:52:01.947Z,98826.56
2022-11-18T00:54:28.496Z,98823.06
2022-11-18T00:56:55.080Z,98829.97
2022-11-18T00:59:24.261Z,98829.06
2022-11-18T01:01:53.063Z,98829.91
2022-11-18T01:04:23.789Z,98829.03
2022-11-18T01:06:52.880Z,98830.72
2022-11-18T01:09:21.918Z,98817.78
2022-11-18T01:12:07.335Z,98825.53
2022-11-18T01:14:34.153Z,98827.06
2022-11-18T01:17:00.726Z,98825.88
2022-11-18T01:19:27.488Z,98830.53
2022-11-18T01:21:54.111Z,98825.00
2022-11-18T01:24:20.648Z,98819.78
2022-11-18T01:26:47.200Z,98811.25
2022-11-18T01:29:13.768Z,98804.56
2022-11-18T01:31:55.617Z,98805.59
2022-11-18T01:34:27.908Z,98801.47
2022-11-18T01:36:54.520Z,98804.16
2022-11-18T01:39:25.854Z,98823.22
2022-11-18T01:41:52.528Z,98832.84
2022-11-18T01:44:37.874Z,98824.31
2022-11-18T01:47:04.474Z,98818.41
2022-11-18T01:49:33.435Z,98818.41
2022-11-18T01:52:00.084Z,98819.25
2022-11-18T01:54:33.812Z,98819.25
2022-11-18T01:57:04.089Z,98825.25
2022-11-18T01:59:31.517Z,98832.72
2022-11-18T02:01:59.777Z,98831.81
2022-11-18T02:04:27.017Z,98832.72
2022-11-18T02:06:56.073Z,98825.91
2022-11-18T02:09:22.764Z,98818.19
2022-11-18T02:11:54.043Z,98818.16
2022-11-18T02:14:21.736Z,98818.97
2022-11-18T02:16:57.503Z,98819.81
2022-11-18T02:19:36.863Z,98818.06
2022-11-18T02:22:06.494Z,98818.00
2022-11-18T02:24:42.625Z,98815.41
2022-11-18T02:27:09.102Z,98815.47
2022-11-18T02:29:45.834Z,98821.56
2022-11-18T02:32:14.426Z,98813.84
2022-11-18T02:34:47.028Z,98807.00
2022-11-18T02:37:48.763Z,98800.16
2022-11-18T02:40:24.328Z,98799.28
2022-11-18T02:42:55.607Z,98784.56
2022-11-18T02:45:22.255Z,98788.94
2022-11-18T02:47:48.865Z,98784.69
2022-11-18T02:50:16.673Z,98778.78
2022-11-18T02:52:48.193Z,98771.94
2022-11-18T02:55:15.407Z,98775.50
2022-11-18T02:57:42.385Z,98771.22
2022-11-18T03:00:09.380Z,98766.97
2022-11-18T03:02:42.256Z,98764.47
2022-11-18T03:05:10.034Z,98770.59
2022-11-18T03:07:36.779Z,98767.09
2022-11-18T03:10:05.764Z,98759.31
2022-11-18T03:12:51.172Z,98764.31
2022-11-18T03:15:26.955Z,98763.47
2022-11-18T03:17:53.448Z,98763.53
2022-11-18T03:20:22.207Z,98754.94
2022-11-18T03:23:01.203Z,98766.28
2022-11-18T03:25:46.466Z,98769.81
2022-11-18T03:28:18.019Z,98771.63
2022-11-18T03:30:53.136Z,98760.41
2022-11-18T03:33:20.759Z,98765.56
2022-11-18T03:35:48.017Z,98778.53
2022-11-18T03:38:18.592Z,98776.72
2022-11-18T03:40:52.076Z,98770.41
2022-11-18T03:43:29.465Z,98769.41
2022-11-18T03:45:57.739Z,98770.88
2022-11-18T03:48:25.762Z,98790.38
2022-11-18T03:51:02.175Z,98797.50
2022-11-18T03:53:29.160Z,98801.91
2022-11-18T03:55:58.255Z,98797.56
2022-11-18T03:58:26.747Z,98796.56
2022-11-18T04:01:01.343Z,98783.88
2022-11-18T04:03:30.070Z,98788.50
2022-11-18T04:05:59.622Z,98792.03
2022-11-18T04:08:27.535Z,98792.13
2022-11-18T04:10:55.678Z,98780.22
2022-11-18T04:13:26.413Z,98772.63
2022-11-18T04:15:53.323Z,98752.84
2022-11-18T04:18:19.867Z,98752.13
2022-11-18T04:20:46.462Z,98747.03
2022-11-18T04:23:13.094Z,98741.91
2022-11-18T04:25:39.623Z,98739.41
2022-11-18T04:28:08.668Z,98729.97
2022-11-18T04:30:37.359Z,98725.72
2022-11-18T04:33:04.060Z,98726.63
2022-11-18T04:35:33.099Z,98720.63
2022-11-18T04:37:59.677Z,98721.53
2022-11-18T04:40:26.244Z,98727.66
2022-11-18T04:42:55.799Z,98725.06
2022-11-18T04:45:24.985Z,98730.25
2022-11-18T04:47:57.638Z,98731.09
2022-11-18T04:50:27.005Z,98741.47
2022-11-18T04:52:53.580Z,98732.84
2022-11-18T04:55:22.652Z,98737.19
2022-11-18T04:57:49.254Z,98741.47
2022-11-18T05:00:16.117Z,98741.47
2022-11-18T05:02:42.681Z,98759.66
2022-11-18T05:05:09.285Z,98766.63
2022-11-18T05:07:36.100Z,98758.84
2022-11-18T05:10:02.712Z,98753.66
2022-11-18T05:12:48.135Z,98756.25
2022-11-18T05:15:18.047Z,98745.00
2022-11-18T05:17:44.709Z,98737.25
2022-11-18T05:20:11.404Z,98720.81
2022-11-18T05:22:43.006Z,98729.50
2022-11-18T05:25:14.161Z,98726.06
2022-11-18T05:27:40.697Z,98729.50
2022-11-18T05:30:07.507Z,98726.91
2022-11-18T05:32:34.099Z,98733.81
2022-11-18T05:35:00.655Z,98738.16
2022-11-18T05:37:27.212Z,98732.06
2022-11-18T05:39:53.736Z,98720.00
2022-11-18T05:42:39.071Z,98717.44
2022-11-18T05:45:08.228Z,98727.81
2022-11-18T05:47:54.756Z,98721.78
2022-11-18T05:50:23.992Z,98700.13
2022-11-18T05:52:52.838Z,98725.94
2022-11-18T05:55:19.416Z,98731.97
2022-11-18T05:57:47.983Z,98734.59
2022-11-18T06:00:17.370Z,98733.78
2022-11-18T06:02:46.639Z,98721.69
2022-11-18T06:05:13.228Z,98720.00
2022-11-18T06:07:41.439Z,98724.38
2022-11-18T06:10:08.380Z,98718.31
2022-11-18T06:12:38.311Z,98731.28
2022-11-18T06:15:23.999Z,98733.88
2022-11-18T06:17:52.295Z,98735.56
2022-11-18T06:20:19.410Z,98739.00
2022-11-18T06:22:46.799Z,98735.56
2022-11-18T06:25:13.549Z,98736.31
2022-11-18T06:27:40.109Z,98723.31
2022-11-18T06:30:09.986Z,98729.34
2022-11-18T06:32:36.559Z,98727.63
2022-11-18T06:35:03.204Z,98728.50
2022-11-18T06:37:29.790Z,98723.25
2022-11-18T06:39:58.763Z,98724.09
2022-11-18T06:42:46.704Z,98722.31
2022-11-18T06:45:13.365Z,98718.94
2022-11-18T06:47:40.408Z,98720.59
2022-11-18T06:50:07.155Z,98721.44
2022-11-18T06:52:33.736Z,98722.31
2022-11-18T06:55:00.364Z,98727.56
2022-11-18T06:57:29.357Z,98730.22
2022-11-18T07:00:02.035Z,98729.38
2022-11-18T07:02:31.703Z,98735.41
2022-11-18T07:04:58.300Z,98732.75
2022-11-18T07:07:24.879Z,98729.31
2022-11-18T07:09:58.582Z,98727.66
2022-11-18T07:12:25.107Z,98731.13
2022-11-18T07:14:51.737Z,98727.72
2022-11-18T07:17:18.865Z,98723.47
2022-11-18T07:19:45.435Z,98724.38
2022-11-18T07:22:12.004Z,98731.31
2022-11-18T07:24:38.574Z,98721.84
2022-11-18T07:27:05.119Z,98711.47
2022-11-18T07:29:34.664Z,98714.94
2022-11-18T07:32:04.098Z,98716.72
2022-11-18T07:34:33.217Z,98712.44
2022-11-18T07:36:59.791Z,98699.50
2022-11-18T07:39:31.327Z,98702.09
2022-11-18T07:41:58.195Z,98704.69
2022-11-18T07:44:25.017Z,98700.38
2022-11-18T07:46:51.755Z,98691.72
2022-11-18T07:49:21.077Z,98683.94
2022-11-18T07:51:52.827Z,98678.75
2022-11-18T07:54:24.222Z,98669.25
2022-11-18T07:56:53.526Z,98670.13
2022-11-18T07:59:20.491Z,98662.34
2022-11-18T08:01:47.471Z,98658.03
2022-11-18T08:04:14.209Z,98664.97
2022-11-18T08:06:43.192Z,98662.34
2022-11-18T08:09:09.943Z,98659.75
2022-11-18T08:11:36.662Z,98669.25
2022-11-18T08:14:03.280Z,98691.72
2022-11-18T08:16:29.813Z,98691.63
2022-11-18T08:18:56.554Z,98695.09
2022-11-18T08:21:23.254Z,98689.00
2022-11-18T08:23:55.960Z,98690.63
2022-11-18T08:26:23.055Z,98690.59
2022-11-18T08:28:52.153Z,98687.13
2022-11-18T08:31:22.771Z,98690.56
2022-11-18T08:33:53.862Z,98681.09
2022-11-18T08:36:24.023Z,98682.72
2022-11-18T08:38:53.498Z,98680.94
2022-11-18T08:41:21.683Z,98671.50
2022-11-18T08:43:50.887Z,98664.59
2022-11-18T08:46:17.447Z,98652.50
2022-11-18T08:48:44.024Z,98664.66
2022-11-18T08:51:11.254Z,98661.22
2022-11-18T08:53:40.266Z,98660.34
2022-11-18T08:56:07.386Z,98649.16
2022-11-18T08:58:33.964Z,98648.34
2022-11-18T09:01:07.056Z,98649.25
2022-11-18T09:03:35.854Z,98641.47
2022-11-18T09:06:07.328Z,98641.47
2022-11-18T09:08:33.986Z,98643.25
2022-11-18T09:11:04.662Z,98646.75
2022-11-18T09:14:14.383Z,98652.78
2022-11-18T09:16:28.199Z,98651.09
2022-11-18T09:18:57.669Z,98652.84
2022-11-18T09:21:27.022Z,98647.63
2022-11-18T09:23:58.312Z,98635.50
2022-11-18T09:26:25.032Z,98629.47
2022-11-18T09:28:54.892Z,98636.38
2022-11-18T09:31:21.477Z,98637.28
2022-11-18T09:33:48.013Z,98639.84
2022-11-18T09:36:14.577Z,98634.66
2022-11-18T09:38:41.422Z,98627.75
2022-11-18T09:41:11.598Z,98623.44
2022-11-18T09:43:56.819Z,98626.88
2022-11-18T09:46:23.437Z,98626.88
2022-11-18T09:49:08.644Z,98621.69
2022-11-18T09:51:38.411Z,98620.81
2022-11-18T09:54:05.043Z,98613.91
2022-11-18T09:56:31.705Z,98610.44
2022-11-18T09:59:00.831Z,98610.44
2022-11-18T10:01:29.740Z,98612.19
2022-11-18T10:03:58.700Z,98596.59
2022-11-18T10:06:26.678Z,98592.31
2022-11-18T10:09:13.946Z,98587.97
2022-11-18T10:11:44.210Z,98580.19
2022-11-18T10:14:25.188Z,98585.41
2022-11-18T10:17:07.145Z,98583.66
2022-11-18T10:19:38.935Z,98575.00
2022-11-18T10:22:24.966Z,98565.44
2022-11-18T10:24:52.764Z,98568.03
2022-11-18T10:27:19.390Z,98559.41
2022-11-18T10:29:53.188Z,98556.81
2022-11-18T10:32:22.231Z,98554.22
2022-11-18T10:35:11.905Z,98560.25
2022-11-18T10:38:06.377Z,98555.94
2022-11-18T10:40:28.655Z,98557.69
2022-11-18T10:42:55.351Z,98550.78
2022-11-18T10:45:25.194Z,98552.47
2022-11-18T10:47:58.196Z,98549.88
2022-11-18T10:50:29.039Z,98550.72
2022-11-18T10:52:55.603Z,98544.66
2022-11-18T10:55:30.610Z,98537.75
2022-11-18T10:57:58.746Z,98552.47
2022-11-18T11:00:34.521Z,98550.72
2022-11-18T11:03:01.311Z,98553.31
2022-11-18T11:05:30.112Z,98547.28
2022-11-18T11:08:29.219Z,98551.59
2022-11-18T11:10:56.876Z,98554.19
2022-11-18T11:13:27.397Z,98555.06
2022-11-18T11:15:55.175Z,98548.16
2022-11-18T11:18:40.985Z,98549.88
2022-11-18T11:21:17.627Z,98554.19
2022-11-18T11:23:47.021Z,98554.22
2022-11-18T11:29:49.830Z,98549.00
2022-11-18T11:32:34.811Z,98561.09
2022-11-18T11:35:07.491Z,98561.03
2022-11-18T11:37:42.650Z,98565.34
2022-11-18T11:40:41.914Z,98560.16
2022-11-18T11:43:26.983Z,98562.69
2022-11-18T11:45:56.587Z,98567.88
2022-11-18T11:48:35.844Z,98571.31
2022-11-18T11:51:05.584Z,98555.72
2022-11-18T11:53:53.199Z,98560.88
2022-11-18T11:56:25.838Z,98569.53
2022-11-18T11:59:02.964Z,98567.81
2022-11-18T12:01:29.488Z,98554.81
2022-11-18T12:04:02.315Z,98556.50
2022-11-18T12:06:28.866Z,98550.41
2022-11-18T12:09:12.206Z,98551.19
2022-11-18T12:11:44.335Z,98551.22
2022-11-18T12:14:13.055Z,98552.94
2022-11-18T12:16:52.657Z,98545.13
2022-11-18T12:19:22.511Z,98538.22
2022-11-18T12:21:53.187Z,98545.13
2022-11-18T12:24:20.663Z,98541.59
2022-11-18T12:26:47.878Z,98540.66
2022-11-18T12:29:22.409Z,98538.88
2022-11-18T12:31:50.592Z,98527.59
2022-11-18T12:34:30.840Z,98520.69
2022-11-18T12:36:57.499Z,98515.50
2022-11-18T12:39:27.330Z,98514.66
2022-11-18T12:42:19.485Z,98524.13
2022-11-18T12:44:50.047Z,98520.59
2022-11-18T12:47:37.400Z,98522.28
2022-11-18T12:50:08.145Z,98517.13
2022-11-18T12:52:35.845Z,98516.19
2022-11-18T12:55:05.000Z,98519.66
2022-11-18T12:57:34.030Z,98525.75
2022-11-18T13:00:19.213Z,98517.97
2022-11-18T13:02:55.920Z,98523.19
2022-11-18T13:05:23.908Z,98524.97
2022-11-18T13:08:15.074Z,98524.13
2022-11-18T13:11:14.713Z,98534.41
2022-11-18T13:13:41.721Z,98536.94
2022-11-18T13:16:38.281Z,98547.22
2022-11-18T13:19:07.371Z,98553.22
2022-11-18T13:21:52.971Z,98554.00
2022-11-18T13:24:21.012Z,98556.41
2022-11-18T13:26:48.279Z,98569.34
2022-11-18T13:29:26.979Z,98559.84
2022-11-18T13:31:57.243Z,98569.25
2022-11-18T13:34:27.021Z,98575.31
2022-11-18T13:36:54.392Z,98574.56
2022-11-18T13:39:24.073Z,98572.03
2022-11-18T13:42:03.209Z,98572.13
2022-11-18T13:44:36.892Z,98574.72
2022-11-18T13:47:16.998Z,98574.78
2022-11-18T13:49:50.563Z,98573.09
2022-11-18T13:52:37.958Z,98574.03
2022-11-18T13:55:13.666Z,98580.06
2022-11-18T13:57:42.696Z,98575.75
2022-11-18T14:00:18.537Z,98577.47
2022-11-18T14:02:46.434Z,98577.50
2022-11-18T14:05:21.258Z,98563.72
2022-11-18T14:07:55.773Z,98562.06
2022-11-18T14:10:29.159Z,98562.97
2022-11-18T14:13:00.068Z,98562.13
2022-11-18T14:15:32.433Z,98560.47
2022-11-18T14:17:59.623Z,98565.66
2022-11-18T14:20:26.821Z,98569.13
2022-11-18T14:22:54.774Z,98575.19
2022-11-18T14:25:24.297Z,98569.16
2022-11-18T14:27:52.056Z,98572.63
2022-11-18T14:30:25.977Z,98571.78
2022-11-18T14:33:11.381Z,98571.81
2022-11-18T14:35:38.444Z,98581.31
2022-11-18T14:41:01.563Z,98576.97
2022-11-18T14:43:28.262Z,98576.13
2022-11-18T14:46:15.076Z,98563.16
2022-11-18T14:48:41.617Z,98569.19
2022-11-18T14:51:11.650Z,98573.53
2022-11-18T14:53:40.840Z,98572.66
2022-11-18T14:56:15.270Z,98576.09
2022-11-18T14:58:41.843Z,98567.47
2022-11-18T15:01:10.078Z,98557.06
2022-11-18T15:03:39.105Z,98557.06
2022-11-18T15:06:14.878Z,98556.25
2022-11-18T15:08:42.928Z,98559.72
2022-11-18T15:11:09.659Z,98558.88
2022-11-18T15:13:38.899Z,98551.13
2022-11-18T15:16:16.052Z,98559.78
2022-11-18T15:18:43.310Z,98556.34
2022-11-18T15:21:10.074Z,98553.78
2022-11-18T15:23:36.912Z,98558.94
2022-11-18T15:26:06.307Z,98566.69
2022-11-18T15:28:35.251Z,98566.69
2022-11-18T15:31:01.911Z,98564.97
2022-11-18T15:33:30.784Z,98564.09
2022-11-18T15:35:59.678Z,98562.31
2022-11-18T15:38:28.568Z,98565.78
2022-11-18T15:40:55.143Z,98567.53
2022-11-18T15:43:24.727Z,98569.31
2022-11-18T15:45:57.109Z,98575.34
2022-11-18T15:48:23.732Z,98574.50
2022-11-18T15:50:54.353Z,98567.66
2022-11-18T15:53:21.060Z,98577.16
2022-11-18T15:55:47.601Z,98582.31
2022-11-18T15:58:17.283Z,98586.63
2022-11-18T16:00:46.784Z,98585.78
2022-11-18T16:03:16.933Z,98583.19
2022-11-18T16:05:43.531Z,98588.41
2022-11-18T16:08:10.117Z,98587.50
2022-11-18T16:10:55.225Z,98592.69
2022-11-18T16:13:24.213Z,98594.44
2022-11-18T16:15:50.831Z,98594.47
2022-11-18T16:18:19.563Z,98591.88
2022-11-18T16:20:46.177Z,98587.59
2022-11-18T16:23:15.255Z,98591.00
2022-11-18T16:25:46.273Z,98589.28
2022-11-18T16:28:12.938Z,98592.78
2022-11-18T16:30:58.072Z,98599.72
2022-11-18T16:33:26.962Z,98596.25
2022-11-18T16:35:56.106Z,98588.50
2022-11-18T16:38:22.631Z,98589.34
2022-11-18T16:40:54.815Z,98594.53
2022-11-18T16:43:21.431Z,98593.72
2022-11-18T16:45:53.767Z,98602.34
2022-11-18T16:48:21.120Z,98596.28
2022-11-18T16:51:20.130Z,98594.53
2022-11-18T16:53:51.023Z,98592.84
2022-11-18T16:56:20.217Z,98607.47
2022-11-18T16:58:46.891Z,98605.75
2022-11-18T17:01:20.035Z,98612.66
2022-11-18T17:03:52.155Z,98612.69
2022-11-18T17:06:21.293Z,98613.38
2022-11-18T17:08:47.836Z,98618.34
2022-11-18T17:11:16.925Z,98619.13
2022-11-18T17:13:44.015Z,98624.28
2022-11-18T17:16:20.088Z,98625.84
2022-11-18T17:18:46.873Z,98622.44
2022-11-18T17:21:21.173Z,98628.53
2022-11-18T17:23:48.349Z,98627.75
2022-11-18T17:26:16.068Z,98633.91
2022-11-18T17:28:42.647Z,98632.25
2022-11-18T17:31:16.595Z,98645.28
2022-11-18T17:33:43.501Z,98641.00
2022-11-18T17:36:13.485Z,98646.97
2022-11-18T17:38:40.770Z,98640.75
2022-11-18T17:41:08.061Z,98643.19
2022-11-18T17:43:34.685Z,98637.13
2022-11-18T17:46:02.964Z,98645.84
2022-11-18T17:48:32.119Z,98658.03
2022-11-18T17:51:07.301Z,98658.16
2022-11-18T17:53:33.854Z,98663.38
2022-11-18T17:56:03.930Z,98665.16
2022-11-18T17:58:33.770Z,98663.53
2022-11-18T18:01:10.275Z,98655.78
2022-11-18T18:03:36.879Z,98659.28
2022-11-18T18:06:06.926Z,98659.31
2022-11-18T18:08:36.537Z,98660.13
2022-11-18T18:11:09.641Z,98667.72
2022-11-18T18:13:58.013Z,98672.81
2022-11-18T18:16:24.994Z,98669.34
2022-11-18T18:18:51.690Z,98671.03
2022-11-18T18:21:18.269Z,98681.34
2022-11-18T18:23:45.524Z,98680.25
2022-11-18T18:26:12.298Z,98677.59
2022-11-18T18:28:40.372Z,98685.34
2022-11-18T18:31:10.472Z,98685.38
2022-11-18T18:33:37.305Z,98685.47
2022-11-18T18:36:07.196Z,98699.84
2022-11-18T18:38:37.215Z,98699.59
2022-11-18T18:41:04.497Z,98697.72
2022-11-18T18:43:31.088Z,98697.03
2022-11-18T18:46:23.464Z,98700.66
2022-11-18T18:48:50.094Z,98701.59
2022-11-18T18:51:17.260Z,98707.56
2022-11-18T18:53:43.776Z,98702.41
2022-11-18T18:56:10.463Z,98707.41
2022-11-18T18:58:37.553Z,98706.47
2022-11-18T19:01:07.446Z,98716.88
2022-11-18T19:03:38.956Z,98719.38
2022-11-18T19:06:47.409Z,98719.09
2022-11-18T19:09:04.376Z,98723.38
2022-11-18T19:11:49.798Z,98722.50
2022-11-18T19:14:18.251Z,98732.03
2022-11-18T19:16:48.122Z,98733.75
2022-11-18T19:19:16.643Z,98740.78
2022-11-18T19:21:50.022Z,98735.53
2022-11-18T19:24:42.397Z,98746.59
2022-11-18T19:27:03.456Z,98754.34
2022-11-18T19:29:30.034Z,98756.03
2022-11-18T19:31:56.687Z,98752.59
2022-11-18T19:34:23.269Z,98767.09
2022-11-18T19:36:50.204Z,98762.66
2022-11-18T19:39:17.021Z,98762.56
2022-11-18T19:41:45.803Z,98768.59
2022-11-18T19:44:12.383Z,98775.59
2022-11-18T19:46:39.079Z,98781.69
2022-11-18T19:49:05.576Z,98771.34
2022-11-18T19:51:32.854Z,98784.31
2022-11-18T19:53:59.906Z,98789.41
2022-11-18T19:56:29.453Z,98792.84
2022-11-18T19:58:56.160Z,98812.88
2022-11-18T20:01:23.810Z,98813.47
2022-11-18T20:03:54.644Z,98815.03
2022-11-18T20:06:24.806Z,98826.00
2022-11-18T20:08:51.603Z,98828.41
2022-11-18T20:11:18.771Z,98839.38
2022-11-18T20:13:45.469Z,98836.84
2022-11-18T20:16:13.027Z,98838.66
2022-11-18T20:18:40.512Z,98849.75
2022-11-18T20:21:08.167Z,98847.09
2022-11-18T20:23:37.442Z,98851.31
2022-11-18T20:26:11.840Z,98866.72
2022-11-18T20:28:38.837Z,98864.88
2022-11-18T20:31:05.813Z,98877.66
2022-11-18T20:33:36.100Z,98881.84
2022-11-18T20:36:05.779Z,98878.63
2022-11-18T20:38:32.575Z,98882.88
2022-11-18T20:41:05.548Z,98888.53
2022-11-18T20:43:35.377Z,98890.91
2022-11-18T20:46:02.466Z,98901.31
2022-11-18T20:48:29.504Z,98904.75
2022-11-18T20:51:06.291Z,98914.13
2022-11-18T20:53:38.892Z,98923.75
2022-11-18T20:56:06.165Z,98932.34
2022-11-18T20:58:33.100Z,98929.50
2022-11-18T21:01:09.482Z,98928.56
2022-11-18T21:03:36.667Z,98933.16
2022-11-18T21:06:12.371Z,98946.06
2022-11-18T21:08:40.880Z,98952.19
2022-11-18T21:11:11.557Z,98956.53
2022-11-18T21:13:56.807Z,98961.72
2022-11-18T21:16:26.230Z,98966.41
2022-11-18T21:18:54.987Z,98976.72
2022-11-18T21:21:40.466Z,98984.00
2022-11-18T21:24:07.314Z,98994.78
2022-11-18T21:26:34.708Z,99004.06
2022-11-18T21:29:04.789Z,99010.75
2022-11-18T21:31:36.315Z,99021.09
2022-11-18T21:34:03.051Z,99021.66
2022-11-18T21:36:29.998Z,99021.56
2022-11-18T21:38:57.055Z,99024.13
2022-11-18T21:41:26.101Z,99015.75
2022-11-18T21:44:07.941Z,99019.66
2022-11-18T21:46:34.964Z,99032.28
2022-11-18T21:49:03.991Z,99035.22
2022-11-18T21:51:33.493Z,99033.63
2022-11-18T21:54:12.669Z,99038.88
2022-11-18T21:56:44.780Z,99040.63
2022-11-18T21:59:11.310Z,99035.00
2022-11-18T22:01:37.901Z,99043.78
2022-11-18T22:04:07.202Z,99040.59
2022-11-18T22:06:34.434Z,99037.19
2022-11-18T22:09:01.519Z,99042.13
2022-11-18T22:11:28.421Z,99042.16
2022-11-18T22:13:58.023Z,99045.53
2022-11-18T22:16:27.111Z,99051.44
2022-11-18T22:19:01.173Z,99051.50
2022-11-18T22:21:30.482Z,99048.66
2022-11-18T22:24:03.004Z,99059.72
2022-11-18T22:26:29.585Z,99058.78
2022-11-18T22:28:58.886Z,99072.44
2022-11-18T22:31:26.380Z,99079.50
2022-11-18T22:33:55.986Z,99078.44
2022-11-18T22:36:23.377Z,99090.72
2022-11-18T22:38:50.167Z,99108.25
2022-11-18T22:41:37.293Z,99103.88
2022-11-18T22:44:07.640Z,99103.19
2022-11-18T22:46:38.062Z,99099.38
2022-11-18T22:49:05.002Z,99100.75
2022-11-18T22:51:31.669Z,99112.25
2022-11-18T22:54:22.875Z,99110.97
2022-11-18T22:56:44.762Z,99119.75
2022-11-18T22:59:16.278Z,99130.66
2022-11-18T23:01:43.745Z,99121.56
2022-11-18T23:04:15.465Z,99108.44
2022-11-18T23:06:42.062Z,99120.59
2022-11-18T23:09:11.608Z,99118.53
2022-11-18T23:11:56.819Z,99130.09
2022-11-18T23:14:23.456Z,99133.50
2022-11-18T23:16:54.637Z,99134.13
2022-11-18T23:19:23.755Z,99133.63
2022-11-18T23:21:55.236Z,99126.38
2022-11-18T23:24:21.958Z,99122.75
2022-11-18T23:26:51.092Z,99125.00
2022-11-18T23:29:18.123Z,99116.75
2022-11-18T23:31:47.800Z,99127.22
2022-11-18T23:34:17.236Z,99131.78
2022-11-18T23:36:43.950Z,99135.28
2022-11-18T23:39:10.672Z,99136.41
2022-11-18T23:41:39.775Z,99146.03
2022-11-18T23:44:06.576Z,99155.56
2022-11-18T23:46:36.035Z,99161.44
2022-11-18T23:49:10.830Z,99161.88
2022-11-18T23:51:37.365Z,99171.75
2022-11-18T23:54:03.999Z,99159.66
2022-11-18T23:56:37.788Z,99156.41
2022-11-18T23:59:05.080Z,99155.28
